Time;durP1;ratioP1;P1;durP2;ratioP2;P2;SDS_P1;SDS_P2;PMS_P1;PMS_P2;Temp;Humidity;BMP_temperature;BMP_pressure;BME280_temperature;BME280_humidity;BME280_pressure;Samples;Min_cycle;Max_cycle;Signal;HPM_P1;HPM_P2
2021/08/07 00:00:31;;;;;;;9.57;3.40;;;22.80;78.20;;;;;;5043062;28;20026;-63
2021/08/07 00:02:57;;;;;;;8.05;3.72;;;22.80;78.60;;;;;;5041870;28;20041;-62
2021/08/07 00:05:24;;;;;;;9.48;4.50;;;22.80;78.80;;;;;;5041551;28;20397;-61
2021/08/07 00:07:50;;;;;;;9.98;3.50;;;22.70;79.00;;;;;;5040817;28;20417;-63
2021/08/07 00:10:17;;;;;;;9.50;4.28;;;22.70;79.10;;;;;;5043023;28;20047;-62
2021/08/07 00:12:44;;;;;;;11.90;4.60;;;22.70;78.80;;;;;;5044931;28;20389;-63
2021/08/07 00:15:11;;;;;;;6.60;4.13;;;22.60;78.90;;;;;;5052750;28;20036;-63
2021/08/07 00:17:37;;;;;;;9.63;3.80;;;22.60;78.90;;;;;;5037247;28;20109;-62
2021/08/07 00:20:06;;;;;;;12.02;4.07;;;22.60;79.70;;;;;;5031708;28;20532;-62
2021/08/07 00:22:32;;;;;;;12.57;3.90;;;22.60;79.10;;;;;;5032590;28;20108;-55
2021/08/07 00:24:59;;;;;;;7.18;3.67;;;22.60;79.20;;;;;;5031802;28;20040;-63
2021/08/07 00:27:25;;;;;;;8.77;3.70;;;22.60;79.20;;;;;;5032714;28;20045;-62
2021/08/07 00:29:52;;;;;;;8.95;3.67;;;22.60;79.20;;;;;;5032692;28;20037;-62
2021/08/07 00:32:19;;;;;;;6.20;3.60;;;22.60;79.20;;;;;;5031666;28;20037;-62
2021/08/07 00:34:47;;;;;;;7.15;3.90;;;22.60;79.50;;;;;;5031068;28;20056;-62
2021/08/07 00:37:13;;;;;;;10.48;3.58;;;22.60;80.00;;;;;;5030452;28;20033;-61
2021/08/07 00:39:52;;;;;;;8.43;3.28;;;22.60;80.20;;;;;;5012762;28;20041;-61
2021/08/07 00:42:19;;;;;;;7.32;3.33;;;22.50;80.40;;;;;;5029533;28;20036;-62
2021/08/07 00:44:46;;;;;;;7.72;4.35;;;22.50;80.90;;;;;;5030288;28;20045;-62
2021/08/07 00:47:14;;;;;;;5.05;3.00;;;22.50;81.10;;;;;;5030290;28;20048;-62
2021/08/07 00:49:43;;;;;;;5.97;3.35;;;22.50;80.90;;;;;;5030904;28;20041;-60
2021/08/07 00:52:11;;;;;;;5.88;3.53;;;22.50;80.50;;;;;;5029045;28;20037;-64
2021/08/07 00:54:44;;;;;;;8.40;3.35;;;22.50;80.10;;;;;;5031542;28;20462;-63
2021/08/07 00:57:12;;;;;;;7.45;3.30;;;22.50;79.80;;;;;;5031126;28;20038;-62
2021/08/07 00:59:41;;;;;;;6.50;3.70;;;22.50;79.80;;;;;;5030785;28;20036;-60
2021/08/07 01:02:14;;;;;;;9.18;3.22;;;22.50;79.60;;;;;;5030912;28;20029;-62
2021/08/07 01:05:08;;;;;;;5.45;3.40;;;22.50;79.20;;;;;;5032426;28;20036;-61
2021/08/07 01:08:05;;;;;;;7.57;3.47;;;22.50;79.30;;;;;;5030902;28;20050;-56
2021/08/07 01:11:00;;;;;;;8.30;3.50;;;22.60;79.20;;;;;;5031612;28;20029;-62
2021/08/07 01:13:40;;;;;;;7.75;3.70;;;22.50;79.10;;;;;;5026981;28;20517;-64
2021/08/07 01:16:18;;;;;;;5.90;3.38;;;22.50;78.90;;;;;;5014513;28;20038;-63
2021/08/07 01:18:47;;;;;;;8.45;3.40;;;22.50;78.90;;;;;;5030675;28;20029;-61
2021/08/07 01:21:20;;;;;;;9.20;3.95;;;22.50;78.50;;;;;;5031422;28;20351;-64
2021/08/07 01:24:02;;;;;;;8.15;3.20;;;22.50;78.20;;;;;;5030968;28;20513;-63
2021/08/07 01:26:45;;;;;;;7.55;3.75;;;22.50;79.20;;;;;;5030648;28;20037;-63
2021/08/07 01:29:20;;;;;;;4.85;3.33;;;22.40;79.70;;;;;;5030640;28;20037;-63
2021/08/07 01:31:55;;;;;;;7.78;3.58;;;22.40;80.30;;;;;;5030903;28;20037;-63
2021/08/07 01:34:32;;;;;;;6.82;3.15;;;22.30;80.90;;;;;;5030525;28;20502;-63
2021/08/07 01:36:59;;;;;;;9.75;3.13;;;22.20;81.60;;;;;;5031048;28;20045;-62
2021/08/07 01:39:45;;;;;;;9.40;3.75;;;22.20;82.10;;;;;;5031010;28;20040;-62
2021/08/07 01:42:14;;;;;;;6.63;3.80;;;22.20;82.60;;;;;;5032166;28;20036;-63
2021/08/07 01:44:42;;;;;;;7.70;3.20;;;22.20;82.80;;;;;;5030409;28;20397;-62
2021/08/07 01:47:35;;;;;;;10.43;3.50;;;22.20;82.50;;;;;;5030675;28;20045;-62
2021/08/07 01:50:09;;;;;;;6.88;3.50;;;22.10;81.90;;;;;;5017241;28;20483;-62
2021/08/07 01:52:42;;;;;;;8.43;3.42;;;22.20;80.40;;;;;;5031148;28;20056;-62
2021/08/07 01:55:16;;;;;;;5.10;3.50;;;22.20;79.60;;;;;;5030785;28;20455;-62
2021/08/07 01:58:14;;;;;;;8.05;3.17;;;22.20;79.40;;;;;;5030919;28;20034;-62
2021/08/07 02:00:46;;;;;;;5.90;3.00;;;22.20;79.50;;;;;;5030782;28;20365;-62
2021/08/07 02:03:18;;;;;;;10.50;3.63;;;22.20;79.40;;;;;;5030226;28;20052;-65
2021/08/07 02:05:47;;;;;;;9.18;3.22;;;22.20;79.40;;;;;;5030305;28;20034;-63
2021/08/07 02:08:16;;;;;;;9.27;3.42;;;22.20;79.30;;;;;;5030694;28;20038;-63
2021/08/07 02:10:53;;;;;;;6.25;3.70;;;22.20;79.40;;;;;;5030290;28;20033;-60
2021/08/07 02:13:21;;;;;;;7.30;3.30;;;22.20;79.50;;;;;;5033744;28;20030;-62
2021/08/07 02:15:53;;;;;;;9.80;3.40;;;22.10;79.70;;;;;;5034271;28;20037;-62
2021/08/07 02:18:27;;;;;;;9.25;3.35;;;22.10;80.10;;;;;;5018501;28;20034;-63
2021/08/07 02:20:56;;;;;;;8.85;3.30;;;22.10;80.40;;;;;;5034159;28;20042;-62
2021/08/07 02:23:25;;;;;;;5.82;3.20;;;22.10;80.60;;;;;;5033095;28;20041;-62
2021/08/07 02:26:00;;;;;;;6.85;3.28;;;22.10;80.50;;;;;;5034266;28;20063;-62
2021/08/07 02:28:36;;;;;;;7.72;3.72;;;22.00;80.70;;;;;;5033604;28;20041;-62
2021/08/07 02:31:08;;;;;;;6.78;3.30;;;22.00;80.70;;;;;;5034255;28;20037;-62
2021/08/07 02:33:41;;;;;;;8.27;3.78;;;22.00;81.20;;;;;;5033346;28;20381;-62
2021/08/07 02:36:11;;;;;;;7.80;3.72;;;22.00;81.60;;;;;;5017440;28;20050;-63
2021/08/07 02:38:39;;;;;;;9.00;3.55;;;21.80;82.50;;;;;;5033668;28;20040;-62
2021/08/07 02:41:09;;;;;;;7.70;3.30;;;21.70;83.50;;;;;;5033967;28;20036;-63
2021/08/07 02:43:42;;;;;;;7.78;3.92;;;21.60;84.50;;;;;;5033545;28;20033;-55
2021/08/07 02:46:11;;;;;;;5.93;3.20;;;21.60;84.40;;;;;;5017632;28;20033;-63
2021/08/07 02:48:40;;;;;;;6.97;2.95;;;21.60;84.50;;;;;;5033630;28;20374;-62
2021/08/07 02:51:08;;;;;;;7.40;3.75;;;21.60;84.40;;;;;;5033933;28;20409;-62
2021/08/07 02:53:44;;;;;;;8.85;3.72;;;21.60;84.50;;;;;;5033513;28;20042;-61
2021/08/07 02:56:11;;;;;;;7.13;3.67;;;21.60;85.10;;;;;;5033563;28;20474;-62
2021/08/07 02:58:39;;;;;;;6.18;3.38;;;21.50;85.00;;;;;;5033459;28;20044;-61
2021/08/07 03:01:06;;;;;;;6.35;3.15;;;21.50;85.20;;;;;;5033257;28;20409;-62
2021/08/07 03:03:34;;;;;;;5.93;2.95;;;21.40;86.00;;;;;;5033116;28;20074;-62
2021/08/07 03:06:02;;;;;;;5.25;3.17;;;21.40;86.10;;;;;;5032869;28;20065;-62
2021/08/07 03:08:28;;;;;;;7.88;3.90;;;21.40;86.10;;;;;;5032820;28;20041;-62
2021/08/07 03:10:56;;;;;;;8.23;3.90;;;21.40;86.40;;;;;;5032856;28;20033;-62
2021/08/07 03:13:25;;;;;;;8.00;3.33;;;21.40;86.80;;;;;;5033191;28;20042;-62
2021/08/07 03:15:52;;;;;;;5.38;2.47;;;21.40;86.90;;;;;;5032988;28;20041;-62
2021/08/07 03:18:24;;;;;;;6.57;3.13;;;21.30;87.20;;;;;;5032974;28;20505;-62
2021/08/07 03:20:56;;;;;;;6.40;3.30;;;21.40;86.80;;;;;;5032622;28;20025;-62
2021/08/07 03:23:25;;;;;;;10.82;3.35;;;21.40;86.30;;;;;;5031970;28;20405;-62
2021/08/07 03:25:57;;;;;;;6.00;3.30;;;21.50;85.50;;;;;;5032452;28;20378;-61
2021/08/07 03:28:24;;;;;;;8.75;3.50;;;21.50;85.10;;;;;;5034156;28;20370;-61
2021/08/07 03:30:51;;;;;;;6.13;3.25;;;21.50;84.70;;;;;;5033042;28;20037;-61
2021/08/07 03:33:19;;;;;;;10.65;3.72;;;21.50;84.20;;;;;;5032604;28;20052;-61
2021/08/07 03:35:46;;;;;;;6.07;3.40;;;21.50;84.40;;;;;;5016295;28;20056;-61
2021/08/07 03:38:14;;;;;;;7.00;3.67;;;21.40;85.50;;;;;;5032340;28;20037;-61
2021/08/07 03:40:40;;;;;;;7.07;3.47;;;21.30;86.30;;;;;;5032638;28;20497;-63
2021/08/07 03:43:13;;;;;;;10.65;3.33;;;21.20;86.80;;;;;;5032662;28;20044;-66
2021/08/07 03:45:41;;;;;;;7.82;3.78;;;21.20;87.70;;;;;;5032466;28;20040;-62
2021/08/07 03:48:08;;;;;;;7.88;3.53;;;21.20;87.80;;;;;;5031913;28;20052;-62
2021/08/07 03:50:42;;;;;;;8.80;4.25;;;21.10;88.30;;;;;;5032460;28;20033;-61
2021/08/07 03:53:12;;;;;;;5.83;3.30;;;21.00;88.80;;;;;;5032168;28;20033;-64
2021/08/07 03:55:39;;;;;;;7.95;3.80;;;21.00;88.80;;;;;;5032487;28;20028;-62
2021/08/07 03:58:07;;;;;;;6.68;4.00;;;21.10;88.80;;;;;;5032042;28;20033;-62
2021/08/07 04:01:06;;;;;;;6.60;3.60;;;21.00;88.80;;;;;;5037759;28;20030;-63
2021/08/07 04:03:34;;;;;;;4.90;3.67;;;20.90;89.30;;;;;;5031782;28;20401;-63
2021/08/07 04:06:02;;;;;;;7.03;3.45;;;20.90;89.70;;;;;;5032260;28;20080;-63
2021/08/07 04:08:31;;;;;;;7.28;3.85;;;20.80;89.80;;;;;;5031689;28;20054;-62
2021/08/07 04:10:58;;;;;;;5.63;3.20;;;20.80;90.00;;;;;;5032138;28;20036;-62
2021/08/07 04:13:29;;;;;;;7.53;3.72;;;20.80;90.00;;;;;;5032114;28;20040;-63
2021/08/07 04:15:59;;;;;;;;;;;20.80;90.10;;;;;;5032235;28;20038;-63
2021/08/07 04:18:26;;;;;;;7.75;3.65;;;20.80;90.10;;;;;;5016368;28;19908;-63
2021/08/07 04:20:54;;;;;;;8.05;3.85;;;20.80;90.00;;;;;;5031878;28;20359;-62
2021/08/07 04:23:23;;;;;;;8.98;4.60;;;20.80;90.00;;;;;;5031862;28;20386;-61
2021/08/07 04:25:49;;;;;;;9.02;3.78;;;20.90;89.30;;;;;;5032724;28;20029;-58
2021/08/07 04:28:16;;;;;;;8.98;4.05;;;20.90;88.30;;;;;;5031786;28;20044;-62
2021/08/07 04:30:45;;;;;;;6.80;3.50;;;20.90;88.10;;;;;;5031495;28;20489;-63
2021/08/07 04:33:13;;;;;;;8.35;3.45;;;21.00;87.80;;;;;;5031848;28;20025;-63
2021/08/07 04:35:44;;;;;;;8.82;3.90;;;21.00;87.60;;;;;;5030745;28;20053;-63
2021/08/07 04:38:18;;;;;;;8.02;3.85;;;21.00;87.80;;;;;;5031753;28;20497;-63
2021/08/07 04:40:46;;;;;;;5.97;3.53;;;21.10;87.40;;;;;;5031423;28;20056;-62
2021/08/07 04:43:19;;;;;;;6.45;3.88;;;21.10;87.20;;;;;;5033100;28;20033;-63
2021/08/07 04:45:45;;;;;;;7.82;4.00;;;21.00;87.30;;;;;;5031227;28;20030;-62
2021/08/07 04:48:13;;;;;;;8.57;3.90;;;21.10;87.10;;;;;;5031614;28;20041;-63
2021/08/07 04:50:48;;;;;;;10.48;4.18;;;21.10;87.20;;;;;;5031709;28;20057;-62
2021/08/07 04:53:14;;;;;;;6.60;4.03;;;21.10;86.80;;;;;;5014804;28;20394;-60
2021/08/07 04:55:45;;;;;;;8.57;4.10;;;21.10;86.90;;;;;;5031643;28;20056;-62
2021/08/07 04:58:14;;;;;;;7.35;4.57;;;21.20;86.90;;;;;;5031406;28;20036;-62
2021/08/07 05:00:42;;;;;;;9.23;4.65;;;21.20;86.60;;;;;;5031344;28;20045;-62
2021/08/07 05:03:10;;;;;;;9.13;4.13;;;21.30;86.70;;;;;;5031121;28;20034;-62
2021/08/07 05:05:40;;;;;;;11.75;4.03;;;21.30;86.50;;;;;;5031363;28;20029;-62
2021/08/07 05:08:07;;;;;;;10.23;5.63;;;21.30;86.30;;;;;;5030595;28;20041;-62
2021/08/07 05:10:35;;;;;;;10.02;4.13;;;21.40;85.90;;;;;;5031482;28;20045;-62
2021/08/07 05:13:04;;;;;;;10.02;3.95;;;21.40;85.40;;;;;;5031056;28;20466;-62
2021/08/07 05:15:31;;;;;;;7.20;3.78;;;21.40;85.30;;;;;;5031234;28;20044;-62
2021/08/07 05:18:02;;;;;;;10.20;4.18;;;21.40;84.80;;;;;;5030918;28;20037;-64
2021/08/07 05:20:29;;;;;;;8.80;4.03;;;21.40;84.70;;;;;;5031083;28;20044;-63
2021/08/07 05:22:55;;;;;;;8.10;3.50;;;21.50;85.20;;;;;;5030927;28;20490;-62
2021/08/07 05:25:22;;;;;;;11.45;3.83;;;21.50;85.20;;;;;;5014779;28;20533;-62
2021/08/07 05:27:51;;;;;;;9.00;4.15;;;21.50;84.60;;;;;;5031211;28;20045;-62
2021/08/07 05:30:17;;;;;;;8.98;4.40;;;21.40;84.60;;;;;;5030937;28;20053;-62
2021/08/07 05:32:45;;;;;;;9.10;3.63;;;21.40;84.90;;;;;;5030898;28;20393;-62
2021/08/07 05:35:15;;;;;;;8.70;4.00;;;21.40;84.70;;;;;;5031617;28;20076;-63
2021/08/07 05:37:43;;;;;;;10.02;3.78;;;21.50;84.40;;;;;;5030933;28;20033;-63
2021/08/07 05:40:13;;;;;;;7.20;3.50;;;21.50;83.80;;;;;;5030706;28;20390;-62
2021/08/07 05:42:44;;;;;;;5.90;3.50;;;21.50;83.70;;;;;;5015037;28;20029;-62
2021/08/07 05:45:12;;;;;;;7.20;3.40;;;21.60;83.70;;;;;;5030752;28;20048;-64
2021/08/07 05:47:38;;;;;;;8.35;3.50;;;21.60;83.30;;;;;;5034363;28;20478;-62
2021/08/07 05:50:09;;;;;;;5.13;3.42;;;21.60;83.20;;;;;;5034562;28;20046;-62
2021/08/07 05:52:36;;;;;;;12.18;3.53;;;21.70;83.70;;;;;;5017956;28;20470;-64
2021/08/07 05:55:05;;;;;;;8.82;4.15;;;21.70;83.30;;;;;;5017624;28;20049;-63
2021/08/07 05:57:32;;;;;;;7.15;3.25;;;21.80;83.10;;;;;;5034524;28;20033;-63
2021/08/07 06:00:02;;;;;;;10.13;4.50;;;21.70;83.00;;;;;;5034382;28;20049;-62
2021/08/07 06:02:32;;;;;;;7.60;3.63;;;21.70;83.10;;;;;;5035667;28;20064;-62
2021/08/07 06:04:59;;;;;;;5.65;3.53;;;21.80;83.30;;;;;;5034460;28;20041;-62
2021/08/07 06:07:28;;;;;;;7.60;4.05;;;21.80;83.10;;;;;;5017286;28;20068;-62
2021/08/07 06:09:54;;;;;;;11.43;3.72;;;21.70;83.20;;;;;;5034501;28;20504;-62
2021/08/07 06:12:21;;;;;;;9.02;3.83;;;21.70;82.90;;;;;;5035228;28;20042;-62
2021/08/07 06:14:47;;;;;;;8.57;3.78;;;21.80;82.90;;;;;;5034072;28;20034;-62
2021/08/07 06:17:14;;;;;;;6.45;3.58;;;21.90;82.50;;;;;;5033980;28;20042;-62
2021/08/07 06:19:42;;;;;;;8.55;4.10;;;21.90;82.30;;;;;;5034168;28;20052;-62
2021/08/07 06:22:09;;;;;;;8.43;3.85;;;21.90;82.20;;;;;;5035153;28;20496;-62
2021/08/07 06:24:35;;;;;;;10.63;3.83;;;22.00;81.90;;;;;;5035292;28;20040;-62
2021/08/07 06:27:04;;;;;;;12.60;4.20;;;22.10;81.60;;;;;;5033774;28;20037;-62
2021/08/07 06:29:30;;;;;;;8.70;3.25;;;22.20;81.30;;;;;;5033967;28;20053;-62
2021/08/07 06:31:57;;;;;;;10.73;4.10;;;22.30;80.70;;;;;;5035055;28;20367;-62
2021/08/07 06:34:24;;;;;;;6.93;3.80;;;22.50;81.50;;;;;;5033944;28;20045;-63
2021/08/07 06:36:50;;;;;;;8.63;3.88;;;22.60;80.80;;;;;;5033979;28;20045;-62
2021/08/07 06:39:17;;;;;;;7.28;4.93;;;22.60;81.20;;;;;;5033285;28;20484;-62
2021/08/07 06:41:43;;;;;;;10.48;5.78;;;22.60;81.70;;;;;;5033463;28;20044;-62
2021/08/07 06:44:13;;;;;;;10.88;5.90;;;22.40;82.10;;;;;;5033373;28;20038;-63
2021/08/07 06:46:41;;;;;;;8.07;5.20;;;22.40;82.90;;;;;;5017423;28;20038;-63
2021/08/07 06:49:08;;;;;;;14.35;6.22;;;22.40;82.60;;;;;;5034232;28;20053;-63
2021/08/07 06:51:35;;;;;;;8.15;5.43;;;22.40;82.50;;;;;;5034715;28;20022;-62
2021/08/07 06:54:03;;;;;;;9.77;6.00;;;22.60;81.90;;;;;;5034204;28;20048;-65
2021/08/07 06:56:31;;;;;;;9.00;5.05;;;22.80;80.60;;;;;;5017144;28;20040;-61
2021/08/07 06:59:00;;;;;;;9.77;5.75;;;23.00;79.40;;;;;;5032073;28;20041;-60
2021/08/07 07:01:26;;;;;;;10.65;6.20;;;23.10;79.20;;;;;;5033405;28;20029;-63
2021/08/07 07:03:53;;;;;;;10.60;6.18;;;23.10;79.30;;;;;;5032511;28;20040;-62
2021/08/07 07:06:22;;;;;;;9.95;5.63;;;23.30;78.50;;;;;;5032890;28;20143;-63
2021/08/07 07:08:50;;;;;;;8.23;4.65;;;23.40;77.00;;;;;;5032624;28;20048;-62
2021/08/07 07:11:17;;;;;;;8.55;4.97;;;23.50;76.40;;;;;;5016495;28;20041;-64
2021/08/07 07:13:45;;;;;;;13.07;4.55;;;23.60;75.30;;;;;;5033234;28;20140;-63
2021/08/07 07:16:14;;;;;;;8.90;4.78;;;23.70;74.00;;;;;;5032274;28;20044;-62
2021/08/07 07:18:40;;;;;;;15.35;6.70;;;23.90;73.40;;;;;;5032754;28;20037;-64
2021/08/07 07:21:09;;;;;;;14.43;5.93;;;23.80;75.10;;;;;;5032874;28;20489;-64
2021/08/07 07:23:36;;;;;;;9.63;5.82;;;23.90;75.60;;;;;;5032387;28;20045;-62
2021/08/07 07:26:02;;;;;;;14.05;7.50;;;24.00;76.40;;;;;;5033547;28;20044;-60
2021/08/07 07:28:29;;;;;;;13.48;8.63;;;24.20;77.00;;;;;;5032815;28;20485;-62
2021/08/07 07:30:56;;;;;;;16.77;9.90;;;24.20;78.10;;;;;;5032139;28;20109;-66
2021/08/07 07:33:22;;;;;;;14.38;9.32;;;24.20;78.90;;;;;;5032452;28;20426;-69
2021/08/07 07:35:49;;;;;;;14.18;9.65;;;24.10;79.80;;;;;;5032263;28;20052;-64
2021/08/07 07:38:16;;;;;;;17.95;10.68;;;24.20;79.70;;;;;;5033327;28;20382;-63
2021/08/07 07:40:42;;;;;;;13.68;9.10;;;24.00;80.90;;;;;;5032619;28;20100;-62
2021/08/07 07:43:09;;;;;;;14.70;9.20;;;24.00;80.90;;;;;;5033184;28;20056;-61
2021/08/07 07:45:35;;;;;;;20.23;11.82;;;24.20;81.40;;;;;;5033776;28;20029;-63
2021/08/07 07:48:05;;;;;;;14.43;9.10;;;24.20;80.70;;;;;;5034993;28;20025;-65
2021/08/07 07:50:32;;;;;;;19.30;11.00;;;24.20;80.50;;;;;;5032514;28;20046;-65
2021/08/07 07:52:59;;;;;;;15.95;11.93;;;24.40;80.40;;;;;;5032000;28;20045;-63
2021/08/07 07:55:28;;;;;;;19.52;12.20;;;24.30;80.70;;;;;;5032084;28;20075;-67
2021/08/07 07:57:57;;;;;;;18.27;12.82;;;24.30;81.10;;;;;;5031415;28;20041;-65
2021/08/07 08:00:24;;;;;;;16.88;12.45;;;24.40;80.80;;;;;;5031965;28;20029;-65
2021/08/07 08:02:54;;;;;;;16.52;10.57;;;24.30;80.00;;;;;;5035917;28;20048;-64
2021/08/07 08:05:29;;;;;;;19.52;11.98;;;24.30;79.20;;;;;;5041553;28;20032;-67
2021/08/07 08:07:58;;;;;;;24.45;14.50;;;24.20;79.80;;;;;;5041474;28;20052;-66
2021/08/07 08:10:24;;;;;;;39.05;23.77;;;24.20;80.20;;;;;;5040580;28;20589;-67
2021/08/07 08:12:51;;;;;;;18.77;14.05;;;24.20;80.50;;;;;;5039505;28;20052;-67
2021/08/07 08:15:20;;;;;;;19.70;13.13;;;24.20;81.60;;;;;;5039039;28;20052;-65
2021/08/07 08:17:48;;;;;;;18.27;11.75;;;24.30;81.40;;;;;;5040303;28;20041;-58
2021/08/07 08:20:15;;;;;;;15.80;10.60;;;24.50;80.90;;;;;;5039726;28;20033;-63
2021/08/07 08:22:42;;;;;;;14.35;10.60;;;24.60;80.50;;;;;;5040896;28;20029;-60
2021/08/07 08:25:11;;;;;;;15.45;10.27;;;24.70;80.00;;;;;;5041068;28;20034;-65
2021/08/07 08:27:39;;;;;;;18.92;10.60;;;24.60;79.90;;;;;;5038886;28;20028;-59
2021/08/07 08:30:08;;;;;;;18.38;10.38;;;24.60;80.60;;;;;;5039815;28;20052;-65
2021/08/07 08:32:35;;;;;;;15.07;10.15;;;24.70;80.40;;;;;;5039330;28;20033;-64
2021/08/07 08:35:04;;;;;;;17.13;9.57;;;24.70;80.40;;;;;;5031924;28;20053;-66
2021/08/07 08:37:32;;;;;;;19.63;10.50;;;24.70;80.00;;;;;;5031440;28;20056;-73
2021/08/07 08:39:58;;;;;;;12.85;9.45;;;24.70;79.70;;;;;;5035626;28;20052;-66
2021/08/07 08:42:26;;;;;;;13.95;8.50;;;24.60;80.20;;;;;;5048634;28;20040;-63
2021/08/07 08:44:53;;;;;;;15.15;9.15;;;24.80;79.60;;;;;;5048747;28;20355;-62
2021/08/07 08:47:22;;;;;;;13.88;10.43;;;24.90;79.50;;;;;;5048906;28;20048;-68
2021/08/07 08:49:51;;;;;;;17.27;9.80;;;24.90;79.30;;;;;;5049334;28;20048;-63
2021/08/07 08:52:23;;;;;;;20.05;11.38;;;25.00;78.70;;;;;;5052608;28;20033;-63
2021/08/07 08:54:50;;;;;;;12.45;8.43;;;25.00;78.10;;;;;;5050355;28;20954;-63
2021/08/07 08:57:17;;;;;;;14.32;10.00;;;24.90;78.80;;;;;;5052239;28;20029;-63
2021/08/07 08:59:44;;;;;;;18.38;12.00;;;24.80;79.30;;;;;;5034845;28;20037;-62
2021/08/07 09:02:12;;;;;;;12.85;10.68;;;24.70;79.90;;;;;;5050295;28;20029;-58
2021/08/07 09:04:38;;;;;;;15.13;12.15;;;24.70;79.90;;;;;;5051228;28;20033;-63
2021/08/07 09:07:05;;;;;;;19.25;10.57;;;24.80;79.70;;;;;;5050968;28;20052;-61
2021/08/07 09:09:45;;;;;;;18.88;10.18;;;25.00;78.90;;;;;;5050484;28;20458;-64
2021/08/07 09:12:16;;;;;;;12.10;8.48;;;25.20;77.60;;;;;;5050968;28;20468;-64
2021/08/07 09:14:53;;;;;;;13.60;8.52;;;25.50;77.10;;;;;;5052227;28;20029;-65
2021/08/07 09:17:21;;;;;;;16.75;9.27;;;25.60;75.70;;;;;;5050122;28;20033;-64
2021/08/07 09:19:59;;;;;;;24.45;11.25;;;25.70;75.10;;;;;;5051135;28;20389;-65
2021/08/07 09:22:33;;;;;;;16.45;9.02;;;25.70;74.60;;;;;;5037451;28;20044;-65
2021/08/07 09:25:12;;;;;;;15.43;8.63;;;25.70;73.90;;;;;;5054892;28;20033;-66
2021/08/07 09:27:41;;;;;;;15.85;8.05;;;25.60;73.50;;;;;;5054232;28;20049;-64
2021/08/07 09:30:17;;;;;;;13.85;7.47;;;25.50;74.20;;;;;;5055010;28;20025;-64
2021/08/07 09:32:45;;;;;;;11.75;7.80;;;25.60;73.80;;;;;;5054701;28;20056;-62
2021/08/07 09:35:15;;;;;;;13.45;9.00;;;25.60;74.10;;;;;;5055924;28;20056;-64
2021/08/07 09:37:42;;;;;;;12.10;8.07;;;25.50;74.50;;;;;;5054070;28;20048;-60
2021/08/07 09:40:11;;;;;;;10.98;6.53;;;25.50;74.30;;;;;;5055636;28;20033;-65
2021/08/07 09:42:53;;;;;;;10.57;6.43;;;25.50;73.40;;;;;;5054292;28;20163;-65
2021/08/07 09:45:25;;;;;;;11.13;5.97;;;25.50;72.10;;;;;;5054032;28;20515;-65
2021/08/07 09:48:01;;;;;;;9.23;5.25;;;25.40;72.80;;;;;;5054135;28;20033;-65
2021/08/07 09:50:32;;;;;;;11.90;6.05;;;25.40;72.90;;;;;;5037799;28;20052;-65
2021/08/07 09:53:03;;;;;;;11.93;5.38;;;25.40;72.40;;;;;;5053867;28;20029;-66
2021/08/07 09:55:30;;;;;;;13.35;5.85;;;25.50;72.00;;;;;;5054243;28;20029;-65
2021/08/07 09:58:06;;;;;;;9.48;4.90;;;25.30;72.30;;;;;;5054428;28;20492;-65
2021/08/07 10:00:43;;;;;;;13.38;5.30;;;25.40;72.20;;;;;;5053988;28;20052;-65
2021/08/07 10:03:16;;;;;;;11.57;5.85;;;25.40;71.80;;;;;;5054455;28;20354;-65
2021/08/07 10:05:45;;;;;;;8.68;4.78;;;25.50;71.60;;;;;;5054289;28;20033;-64
2021/08/07 10:08:12;;;;;;;12.75;5.25;;;25.80;70.20;;;;;;5053323;28;20495;-64
2021/08/07 10:10:43;;;;;;;13.15;5.65;;;25.80;70.20;;;;;;5053856;28;20041;-62
2021/08/07 10:13:12;;;;;;;13.63;6.00;;;25.70;70.30;;;;;;5021528;28;20041;-65
2021/08/07 10:15:49;;;;;;;11.80;6.85;;;25.70;70.20;;;;;;5053348;28;20298;-63
2021/08/07 10:18:17;;;;;;;10.50;5.00;;;25.70;69.70;;;;;;5054759;28;20052;-64
2021/08/07 10:20:44;;;;;;;13.10;4.68;;;25.80;69.50;;;;;;5053394;28;20040;-65
2021/08/07 10:23:11;;;;;;;12.25;6.00;;;25.90;69.50;;;;;;5053436;28;20048;-63
2021/08/07 10:25:44;;;;;;;11.85;5.60;;;26.00;69.20;;;;;;5054485;28;20052;-64
2021/08/07 10:28:14;;;;;;;13.88;5.80;;;26.00;69.00;;;;;;5053936;28;20032;-62
2021/08/07 10:30:43;;;;;;;8.60;5.68;;;26.10;69.30;;;;;;5053125;28;20480;-63
2021/08/07 10:33:11;;;;;;;9.50;5.35;;;26.00;69.00;;;;;;5052420;28;20048;-59
2021/08/07 10:35:38;;;;;;;11.35;7.15;;;26.00;69.60;;;;;;5053199;28;20056;-63
2021/08/07 10:38:05;;;;;;;11.85;7.05;;;25.90;68.40;;;;;;5053187;28;20037;-63
2021/08/07 10:40:31;;;;;;;8.18;6.53;;;25.80;68.00;;;;;;5053116;28;20032;-62
2021/08/07 10:42:59;;;;;;;11.63;6.10;;;25.80;67.90;;;;;;5053172;28;20032;-64
2021/08/07 10:45:26;;;;;;;18.40;12.68;;;26.00;67.70;;;;;;5052640;28;20066;-61
2021/08/07 10:47:53;;;;;;;17.92;9.77;;;26.00;69.20;;;;;;5052405;28;20500;-60
2021/08/07 10:50:34;;;;;;;12.15;7.97;;;26.10;69.50;;;;;;5053195;28;20048;-62
2021/08/07 10:53:18;;;;;;;12.63;7.50;;;26.10;69.70;;;;;;5052700;28;20383;-62
2021/08/07 10:55:55;;;;;;;12.80;6.97;;;26.00;69.70;;;;;;5054271;28;20041;-62
2021/08/07 10:58:43;;;;;;;11.10;5.68;;;26.10;69.20;;;;;;5054159;28;20044;-62
2021/08/07 11:01:25;;;;;;;10.70;6.00;;;26.00;69.50;;;;;;5053844;28;20032;-61
2021/08/07 11:04:02;;;;;;;11.90;6.53;;;26.00;69.20;;;;;;5054205;28;20063;-61
2021/08/07 11:06:43;;;;;;;8.98;6.15;;;25.90;69.80;;;;;;5054272;28;20025;-62
2021/08/07 11:09:16;;;;;;;10.50;5.60;;;25.90;70.70;;;;;;5053965;28;20033;-55
2021/08/07 11:11:43;;;;;;;10.68;6.15;;;25.70;71.00;;;;;;5054134;28;20362;-61
2021/08/07 11:14:25;;;;;;;11.48;5.38;;;25.80;71.00;;;;;;5052467;28;20040;-62
2021/08/07 11:17:04;;;;;;;12.30;6.25;;;25.80;71.00;;;;;;5052861;28;20056;-62
2021/08/07 11:19:54;;;;;;;11.77;5.95;;;26.00;70.70;;;;;;5054075;28;20036;-61
2021/08/07 11:22:32;;;;;;;13.52;7.43;;;25.80;70.80;;;;;;5053389;28;20028;-61
2021/08/07 11:25:01;;;;;;;10.45;5.90;;;26.00;70.50;;;;;;5053517;28;20045;-61
2021/08/07 11:30:18;;;;;;;17.73;10.68;;;26.10;70.40;;;;;;5053016;28;20152;-64
2021/08/07 11:33:00;;;;;;;16.95;10.85;;;26.00;70.20;;;;;;5052694;28;20033;-61
2021/08/07 11:35:36;;;;;;;23.35;16.52;;;25.90;70.60;;;;;;5053687;28;20053;-62
2021/08/07 11:38:05;;;;;;;21.83;13.63;;;25.90;70.80;;;;;;5052254;28;20476;-62
2021/08/07 11:40:40;;;;;;;27.02;19.60;;;26.00;69.70;;;;;;5053340;28;20032;-62
2021/08/07 11:43:26;;;;;;;15.13;8.18;;;25.90;70.00;;;;;;5053694;28;20025;-62
2021/08/07 11:45:55;;;;;;;11.43;7.50;;;26.00;70.40;;;;;;5052898;28;20044;-67
2021/08/07 11:48:25;;;;;;;10.52;6.97;;;25.90;71.90;;;;;;5052625;28;20041;-62
2021/08/07 11:50:53;;;;;;;10.52;5.10;;;26.00;71.10;;;;;;5053449;28;20036;-61
2021/08/07 11:53:21;;;;;;;14.98;5.90;;;26.00;71.10;;;;;;5052697;28;20060;-61
2021/08/07 11:55:59;;;;;;;10.52;5.90;;;25.80;71.40;;;;;;5053374;28;20033;-62
2021/08/07 11:58:27;;;;;;;13.68;6.40;;;25.70;72.20;;;;;;5053026;28;20033;-67
2021/08/07 12:00:58;;;;;;;11.35;6.07;;;25.80;72.40;;;;;;5052518;28;20025;-61
2021/08/07 12:03:25;;;;;;;8.98;6.18;;;25.70;72.40;;;;;;5053045;28;20465;-62
2021/08/07 12:05:57;;;;;;;12.98;6.00;;;25.80;72.40;;;;;;5052343;28;20381;-62
2021/08/07 12:08:25;;;;;;;14.55;6.35;;;25.90;72.30;;;;;;5052585;28;20041;-63
2021/08/07 12:10:55;;;;;;;9.77;5.97;;;25.90;71.90;;;;;;5051164;28;20497;-62
2021/08/07 12:13:29;;;;;;;11.20;5.78;;;26.00;71.80;;;;;;5051116;28;20041;-63
2021/08/07 12:16:04;;;;;;;10.70;6.45;;;26.00;72.00;;;;;;5052901;28;20036;-74
2021/08/07 12:18:59;;;;;;;9.50;6.30;;;26.10;71.70;;;;;;5053164;28;20029;-74
2021/08/07 12:21:38;;;;;;;10.93;5.85;;;26.00;71.10;;;;;;5050669;28;20056;-64
2021/08/07 12:24:10;;;;;;;9.32;5.50;;;26.00;71.80;;;;;;5052588;28;20036;-62
2021/08/07 12:26:51;;;;;;;10.93;6.22;;;26.00;71.80;;;;;;5052495;28;20036;-63
2021/08/07 12:29:19;;;;;;;10.52;6.38;;;25.90;72.20;;;;;;5052014;28;20040;-64
2021/08/07 12:31:50;;;;;;;12.98;7.00;;;25.90;72.20;;;;;;5052310;28;20104;-63
2021/08/07 12:34:21;;;;;;;14.23;7.70;;;26.00;72.20;;;;;;5051594;28;20049;-67
2021/08/07 12:37:01;;;;;;;18.80;9.23;;;26.10;72.10;;;;;;5050224;28;20397;-71
2021/08/07 12:39:36;;;;;;;19.67;14.07;;;26.10;72.00;;;;;;5051801;28;20052;-70
2021/08/07 12:42:04;;;;;;;20.35;14.20;;;26.00;72.50;;;;;;5051766;28;20049;-63
2021/08/07 12:44:31;;;;;;;25.33;16.95;;;25.90;72.80;;;;;;5050108;28;20052;-62
2021/08/07 12:46:57;;;;;;;23.52;16.98;;;26.00;72.10;;;;;;5050277;28;20040;-62
2021/08/07 12:49:36;;;;;;;16.00;11.65;;;26.00;72.10;;;;;;5050386;28;20036;-62
2021/08/07 12:52:07;;;;;;;13.32;7.57;;;26.00;72.50;;;;;;5051601;28;20033;-68
2021/08/07 12:54:34;;;;;;;10.55;6.70;;;26.00;73.00;;;;;;5052054;28;20517;-64
2021/08/07 12:57:01;;;;;;;12.70;7.13;;;26.00;72.60;;;;;;5051386;28;20478;-67
2021/08/07 12:59:28;;;;;;;10.50;6.13;;;26.00;72.30;;;;;;5051522;28;20369;-67